Terminal Aerodrome Forecast
Issued by NWS

Home | Current Version | Previous Version | Text Only | Print | Product List | Glossary On
Versions: 1 2 3 4 5 6 7 8 9 10 11 12 13 14 15 16 17 18 19 20 21 22 23
000
FTUS43 KDLH 111145 AAD
TAFBRD
TAF AMD
KBRD 111145Z 1112/1212 22004KT 2SM -SN OVC015
     FM111300 27005KT P6SM VCSH SCT010 OVC020
     FM111500 34011G20KT 4SM -SN SCT010 BKN020
     FM111700 34017G29KT P6SM -SN BKN025
     FM120300 33011G20KT P6SM SCT020
     FM120600 31007G14KT P6SM SCT100=

USA.gov is the U.S. government's official web portal to all federal, state and local government web resources and services.